createdAt,value
2018-09-29T09:25:58.836Z,12.91
2018-09-29T09:26:59.320Z,12.94
2018-09-29T09:28:54.738Z,13.01
2018-09-29T09:29:55.792Z,13.10
2018-09-29T09:31:50.704Z,13.24
2018-09-29T09:32:50.660Z,13.07
2018-09-29T09:34:46.136Z,13.11
2018-09-29T09:35:45.106Z,13.24
2018-09-29T09:37:40.051Z,13.29
2018-09-29T09:38:39.511Z,13.35
2018-09-29T09:40:33.971Z,13.32
2018-09-29T09:41:33.942Z,13.40
2018-09-29T09:43:28.445Z,13.37
2018-09-29T09:44:27.389Z,13.42
2018-09-29T09:46:22.400Z,13.55
2018-09-29T09:47:21.851Z,13.58
2018-09-29T09:49:19.875Z,13.58
2018-09-29T09:50:18.625Z,13.69
2018-09-29T09:52:14.616Z,13.63
2018-09-29T09:53:14.567Z,13.68
2018-09-29T09:55:10.545Z,13.55
2018-09-29T09:56:11.150Z,13.58
2018-09-29T09:58:07.432Z,13.55
2018-09-29T09:59:06.455Z,13.65
2018-09-29T10:01:03.422Z,13.57
2018-09-29T10:03:58.394Z,13.66
2018-09-29T10:04:58.369Z,13.65
2018-09-29T10:06:54.320Z,13.84
2018-09-29T10:07:54.318Z,13.83
2018-09-29T10:09:50.285Z,13.94
2018-09-29T10:10:50.257Z,14.05
2018-09-29T10:12:47.211Z,14.09
2018-09-29T10:13:46.184Z,14.11
2018-09-29T10:15:42.153Z,14.06
2018-09-29T10:16:42.113Z,14.02
2018-09-29T10:18:44.053Z,14.06
2018-09-29T10:21:20.610Z,14.23
2018-09-29T10:22:20.601Z,14.26
2018-09-29T10:24:43.225Z,14.34
2018-09-29T10:25:39.886Z,14.26
2018-09-29T10:28:06.604Z,14.21
2018-09-29T10:31:39.749Z,14.34
2018-09-29T10:32:25.505Z,14.44
2018-09-29T10:34:21.493Z,14.46
2018-09-29T10:35:21.462Z,14.53
2018-09-29T10:37:17.399Z,14.67
2018-09-29T10:38:17.408Z,14.69
2018-09-29T10:40:14.285Z,14.85
2018-09-29T10:41:13.356Z,14.82
2018-09-29T10:43:24.451Z,14.77
2018-09-29T10:44:23.920Z,14.71
2018-09-29T10:46:19.820Z,14.74
2018-09-29T10:47:19.854Z,14.74
2018-09-29T10:49:16.784Z,14.61
2018-09-29T10:50:15.779Z,14.66
2018-09-29T10:52:14.247Z,14.56
2018-09-29T10:53:11.723Z,14.59
2018-09-29T10:55:07.667Z,14.69
2018-09-29T10:56:07.665Z,14.80
2018-09-29T10:58:03.617Z,14.69
2018-09-29T10:59:03.614Z,14.64
2018-09-29T11:00:59.691Z,14.77
2018-09-29T11:01:59.618Z,14.74
2018-09-29T11:03:57.678Z,14.75
2018-09-29T11:04:58.542Z,14.83
2018-09-29T11:06:53.645Z,14.74
2018-09-29T11:07:53.633Z,14.74
2018-09-29T11:09:49.604Z,14.90
2018-09-29T11:10:50.076Z,14.97
2018-09-29T11:12:46.031Z,14.93
2018-09-29T11:13:45.504Z,15.00
2018-09-29T11:15:41.405Z,15.10
2018-09-29T11:16:41.428Z,15.08
2018-09-29T11:18:37.373Z,15.19
2018-09-29T11:19:37.390Z,15.15
2018-09-29T11:21:33.318Z,15.41
2018-09-29T11:22:33.315Z,15.49
2018-09-29T11:24:30.274Z,15.47
2018-09-29T11:25:29.249Z,15.51
2018-09-29T11:27:23.725Z,15.44
2018-09-29T11:28:23.711Z,15.41
2018-09-29T11:30:19.679Z,15.44
2018-09-29T11:31:19.653Z,15.52
2018-09-29T11:33:15.606Z,15.49
2018-09-29T11:34:15.641Z,15.47
2018-09-29T11:36:11.639Z,15.45
2018-09-29T11:37:11.544Z,15.56
2018-09-29T11:39:06.022Z,15.70
2018-09-29T11:40:04.951Z,15.67
2018-09-29T11:42:00.406Z,15.75
2018-09-29T11:42:59.414Z,15.81
2018-09-29T11:44:56.001Z,15.89
2018-09-29T11:45:55.366Z,15.93
2018-09-29T11:47:51.338Z,15.70
2018-09-29T11:48:51.313Z,15.71
2018-09-29T11:50:47.297Z,15.71
2018-09-29T11:51:47.772Z,15.71
2018-09-29T11:53:41.745Z,15.70
2018-09-29T11:54:42.211Z,15.71
2018-09-29T11:56:37.911Z,15.78
2018-09-29T11:57:37.912Z,15.88
2018-09-29T11:59:34.373Z,15.89
2018-09-29T12:00:33.857Z,15.83
2018-09-29T12:02:29.807Z,15.86
2018-09-29T12:03:29.784Z,15.86
2018-09-29T12:05:25.251Z,15.93
2018-09-29T12:06:24.281Z,15.98
2018-09-29T12:08:18.001Z,16.10
2018-09-29T12:09:17.641Z,16.13
2018-09-29T12:11:13.036Z,16.30
2018-09-29T12:12:13.105Z,16.25
2018-09-29T12:14:07.073Z,16.27
2018-09-29T12:15:07.083Z,16.42
2018-09-29T12:17:01.533Z,16.34
2018-09-29T12:18:01.494Z,16.40
2018-09-29T12:19:57.953Z,16.37
2018-09-29T12:20:57.444Z,16.29
2018-09-29T12:22:51.901Z,16.16
2018-09-29T12:23:51.893Z,16.14
2018-09-29T12:25:47.854Z,16.18
2018-09-29T12:26:47.802Z,16.25
2018-09-29T12:28:42.279Z,16.29
2018-09-29T12:29:42.280Z,16.22
2018-09-29T12:31:38.266Z,16.16
2018-09-29T12:32:39.157Z,16.30
2018-09-29T12:34:34.741Z,16.37
2018-09-29T12:35:34.174Z,16.37
2018-09-29T12:37:30.200Z,16.36
2018-09-29T12:38:30.185Z,16.44
2018-09-29T12:40:26.630Z,16.54
2018-09-29T12:41:26.629Z,16.48
2018-09-29T12:43:21.592Z,16.42
2018-09-29T12:44:20.601Z,16.59
2018-09-29T12:46:15.028Z,16.51
2018-09-29T12:47:15.041Z,16.55
2018-09-29T12:49:09.505Z,16.76
2018-09-29T12:50:09.566Z,16.80
2018-09-29T12:52:06.941Z,16.74
2018-09-29T12:53:06.153Z,16.70
2018-09-29T12:54:59.477Z,16.81
2018-09-29T12:55:58.964Z,16.73
2018-09-29T12:57:53.372Z,16.77
2018-09-29T12:58:53.385Z,16.73
2018-09-29T13:00:49.812Z,16.70
2018-09-29T13:01:49.406Z,16.69
2018-09-29T13:03:43.862Z,16.59
2018-09-29T13:04:43.856Z,16.59
2018-09-29T13:06:39.313Z,16.65
2018-09-29T13:07:38.324Z,16.65
2018-09-29T13:09:34.253Z,16.76
2018-09-29T13:10:34.229Z,16.77
2018-09-29T13:12:30.717Z,16.77
2018-09-29T13:13:30.208Z,16.81
2018-09-29T13:15:28.123Z,16.90
2018-09-29T13:16:29.108Z,16.81
2018-09-29T13:18:24.563Z,16.90
2018-09-29T13:19:24.054Z,16.90
2018-09-29T13:21:20.016Z,16.94
2018-09-29T13:22:20.499Z,16.95
2018-09-29T13:24:16.950Z,17.05
2018-09-29T13:25:15.973Z,17.07
2018-09-29T13:27:11.899Z,16.97
2018-09-29T13:28:12.414Z,17.00
2018-09-29T13:30:07.878Z,17.03
2018-09-29T13:31:07.839Z,17.17
2018-09-29T13:33:02.801Z,17.15
2018-09-29T13:34:01.303Z,17.20
2018-09-29T13:35:57.758Z,17.25
2018-09-29T13:36:55.762Z,17.24
2018-09-29T13:38:50.207Z,17.12
2018-09-29T13:39:50.697Z,17.27
2018-09-29T13:41:48.154Z,17.17
2018-09-29T13:42:46.159Z,17.10
2018-09-29T13:44:42.611Z,17.18
2018-09-29T13:45:42.133Z,17.13
2018-09-29T13:47:38.566Z,17.17
2018-09-29T13:48:38.024Z,17.21
2018-09-29T13:50:36.158Z,17.25
2018-09-29T13:51:36.986Z,17.13
2018-09-29T13:53:33.621Z,17.35
2018-09-29T13:54:32.601Z,17.24
2018-09-29T13:56:26.556Z,17.21
2018-09-29T13:57:27.033Z,17.21
2018-09-29T13:59:23.000Z,17.38
2018-09-29T14:00:22.475Z,17.31
2018-09-29T14:02:18.843Z,17.17
2018-09-29T14:03:18.792Z,17.18
2018-09-29T14:05:15.239Z,17.25
2018-09-29T14:06:14.721Z,17.18
2018-09-29T14:08:11.676Z,17.09
2018-09-29T14:09:12.108Z,17.15
2018-09-29T14:11:06.672Z,17.15
2018-09-29T14:12:06.621Z,17.00
2018-09-29T14:14:05.093Z,16.92
2018-09-29T14:15:05.609Z,17.00
2018-09-29T14:17:00.705Z,17.03
2018-09-29T14:18:00.673Z,17.05
2018-09-29T14:19:57.688Z,17.12
2018-09-29T14:20:56.631Z,17.10
2018-09-29T14:22:53.079Z,17.15
2018-09-29T14:23:54.067Z,17.13
2018-09-29T14:25:48.528Z,17.12
2018-09-29T14:26:48.512Z,17.07
2018-09-29T14:28:45.978Z,17.10
2018-09-29T14:29:44.503Z,17.12
2018-09-29T14:31:40.976Z,17.15
2018-09-29T14:32:40.462Z,17.12
2018-09-29T14:34:36.397Z,17.24
2018-09-29T14:35:36.943Z,17.38
2018-09-29T14:37:32.429Z,17.38
2018-09-29T14:38:32.871Z,17.42
2018-09-29T14:40:26.728Z,17.40
2018-09-29T14:41:28.176Z,17.38
2018-09-29T14:43:21.688Z,17.42
2018-09-29T14:44:21.125Z,17.36
2018-09-29T14:46:17.055Z,17.27
2018-09-29T14:47:17.589Z,17.24
2018-09-29T14:49:14.047Z,17.21
2018-09-29T14:50:13.032Z,17.21
2018-09-29T14:52:08.996Z,17.32
2018-09-29T14:53:08.984Z,17.13
2018-09-29T14:55:05.928Z,17.21
2018-09-29T14:56:05.935Z,17.25
2018-09-29T14:58:01.323Z,17.22
2018-09-29T14:59:01.291Z,17.21
2018-09-29T15:00:57.251Z,17.21
2018-09-29T15:01:57.709Z,17.22
2018-09-29T15:03:54.630Z,17.24
2018-09-29T15:04:54.190Z,17.21
2018-09-29T15:06:50.169Z,17.25
2018-09-29T15:07:49.154Z,17.32
2018-09-29T15:09:45.605Z,17.31
2018-09-29T15:10:45.095Z,17.35
2018-09-29T15:12:41.096Z,17.30
2018-09-29T15:13:41.547Z,17.30
2018-09-29T15:15:36.975Z,17.24
2018-09-29T15:16:36.983Z,17.30
2018-09-29T15:18:32.977Z,17.36
2018-09-29T15:19:34.434Z,17.25
2018-09-29T15:21:26.881Z,17.32
2018-09-29T15:22:26.375Z,17.25
2018-09-29T15:24:23.337Z,17.30
2018-09-29T15:25:23.314Z,17.24
2018-09-29T15:27:19.264Z,17.20
2018-09-29T15:28:19.269Z,17.30
2018-09-29T15:30:16.234Z,17.21
2018-09-29T15:31:15.228Z,17.27
2018-09-29T15:33:12.176Z,17.24
2018-09-29T15:34:11.185Z,17.21
2018-09-29T15:36:07.117Z,17.17
2018-09-29T15:37:07.677Z,17.18
2018-09-29T15:39:08.349Z,17.09
2018-09-29T15:40:08.603Z,17.10
2018-09-29T15:42:03.668Z,17.17
2018-09-29T15:43:03.586Z,17.15
2018-09-29T15:45:02.117Z,17.09
2018-09-29T15:46:01.969Z,17.10
2018-09-29T15:47:59.397Z,17.07
2018-09-29T15:48:57.530Z,16.97
2018-09-29T15:50:51.954Z,17.02
2018-09-29T15:51:52.030Z,17.00
2018-09-29T15:53:52.717Z,16.97
2018-09-29T15:54:52.828Z,16.99
2018-09-29T15:56:48.216Z,16.99
2018-09-29T15:57:47.486Z,16.99
2018-09-29T15:59:45.395Z,16.97
2018-09-29T16:00:44.549Z,17.09
2018-09-29T16:02:40.644Z,17.07
2018-09-29T16:03:41.557Z,17.00
2018-09-29T16:05:42.922Z,16.94
2018-09-29T16:06:42.766Z,16.90
2018-09-29T16:08:39.189Z,16.77
2018-09-29T16:09:39.276Z,16.74
2018-09-29T16:11:38.142Z,16.67
2018-09-29T16:12:38.315Z,16.58
2018-09-29T16:14:52.882Z,16.51
2018-09-29T16:18:07.040Z,16.42
2018-09-29T16:20:18.415Z,16.47
2018-09-29T16:22:42.899Z,16.33
2018-09-29T16:23:42.495Z,16.33
2018-09-29T16:25:58.315Z,16.26
2018-09-29T16:26:41.955Z,16.21
2018-09-29T16:28:50.560Z,16.14
2018-09-29T16:31:33.474Z,15.95
2018-09-29T16:32:32.062Z,15.93
2018-09-29T16:34:52.349Z,15.83
2018-09-29T16:35:53.476Z,15.78
2018-09-29T16:38:01.770Z,15.71
2018-09-29T16:39:02.872Z,15.68
2018-09-29T16:43:21.708Z,15.53
2018-09-29T16:45:37.568Z,15.44
2018-09-29T16:46:37.589Z,15.47
2018-09-29T16:48:34.072Z,15.37
2018-09-29T16:49:34.482Z,15.35
2018-09-29T16:51:27.063Z,15.34
2018-09-29T16:52:27.934Z,15.18
2018-09-29T16:54:20.476Z,15.20
2018-09-29T16:55:20.468Z,15.23
2018-09-29T16:57:15.479Z,15.15
2018-09-29T16:58:15.416Z,14.97
2018-09-29T17:00:09.864Z,14.94
2018-09-29T17:01:09.853Z,14.82
2018-09-29T17:03:04.295Z,14.83
2018-09-29T17:04:03.977Z,14.70
2018-09-29T17:05:58.296Z,14.64
2018-09-29T17:06:58.774Z,14.67
2018-09-29T17:08:54.721Z,14.61
2018-09-29T17:09:54.240Z,14.51
2018-09-29T17:11:50.659Z,14.45
2018-09-29T17:12:49.162Z,14.45
2018-09-29T17:14:43.152Z,14.52
2018-09-29T17:15:43.179Z,14.44
2018-09-29T17:17:37.583Z,14.36
2018-09-29T17:18:37.076Z,14.33
2018-09-29T17:20:32.024Z,14.23
2018-09-29T17:21:31.003Z,14.34
2018-09-29T17:23:26.465Z,14.15
2018-09-29T17:24:25.455Z,14.13
2018-09-29T17:26:21.432Z,14.03
2018-09-29T17:27:21.923Z,13.95
2018-09-29T17:29:14.827Z,13.94
2018-09-29T17:30:14.839Z,13.79
2018-09-29T17:32:11.286Z,13.78
2018-09-29T17:33:09.269Z,13.72
2018-09-29T17:35:03.753Z,13.65
2018-09-29T17:36:03.696Z,13.55
2018-09-29T17:37:58.155Z,13.54
2018-09-29T17:38:58.662Z,13.62
2018-09-29T17:40:53.102Z,13.47
2018-09-29T17:41:54.104Z,13.40
2018-09-29T17:43:48.040Z,13.32
2018-09-29T17:44:47.063Z,13.21
2018-09-29T17:46:41.489Z,13.24
2018-09-29T17:47:41.499Z,13.11
2018-09-29T17:49:37.446Z,12.99
2018-09-29T17:50:37.476Z,12.98
2018-09-29T17:52:31.437Z,12.95
2018-09-29T17:53:31.417Z,12.96
2018-09-29T17:55:26.350Z,12.89
2018-09-29T17:56:25.278Z,12.86
2018-09-29T17:58:19.718Z,12.77
2018-09-29T17:59:19.716Z,12.78
2018-09-29T18:01:14.147Z,12.69
2018-09-29T18:02:15.669Z,12.62
2018-09-29T18:04:08.696Z,12.58
2018-09-29T18:05:09.111Z,12.56
2018-09-29T18:07:03.040Z,12.41
2018-09-29T18:08:03.043Z,12.45
2018-09-29T18:09:57.487Z,12.45
2018-09-29T18:10:57.477Z,12.45
2018-09-29T18:12:51.944Z,12.28
2018-09-29T18:13:52.464Z,12.29
2018-09-29T18:15:48.372Z,12.22
2018-09-29T18:16:48.366Z,12.29
2018-09-29T18:18:42.320Z,12.31
2018-09-29T18:19:42.275Z,12.31
2018-09-29T18:21:36.758Z,12.20
2018-09-29T18:22:37.224Z,12.23
2018-09-29T18:24:33.153Z,12.18
2018-09-29T18:25:33.146Z,12.11
2018-09-29T18:27:27.069Z,12.23
2018-09-29T18:28:27.081Z,12.10
2018-09-29T18:30:22.463Z,12.13
2018-09-29T18:31:22.025Z,12.16
2018-09-29T18:33:15.474Z,12.13
2018-09-29T18:34:14.950Z,12.10
2018-09-29T18:36:10.914Z,12.08
2018-09-29T18:37:09.404Z,12.05
2018-09-29T18:39:05.275Z,12.01
2018-09-29T18:40:03.828Z,11.88
2018-09-29T18:42:00.306Z,11.97
2018-09-29T18:42:59.772Z,11.91
2018-09-29T18:44:55.232Z,11.84
2018-09-29T18:45:54.228Z,11.86
2018-09-29T18:47:47.666Z,11.78
2018-09-29T18:48:47.680Z,11.70
2018-09-29T18:50:42.617Z,11.76
2018-09-29T18:51:42.152Z,11.71
2018-09-29T18:53:36.517Z,11.71
2018-09-29T18:54:36.542Z,11.64
2018-09-29T18:56:30.996Z,11.61
2018-09-29T18:57:32.039Z,11.56
2018-09-29T18:59:26.944Z,11.57
2018-09-29T19:00:26.920Z,11.56
2018-09-29T19:02:21.337Z,11.46
2018-09-29T19:03:21.340Z,11.41
2018-09-29T19:05:17.788Z,11.39
2018-09-29T19:06:17.249Z,11.39
2018-09-29T19:08:10.735Z,11.33
2018-09-29T19:09:10.684Z,11.30
2018-09-29T19:11:04.127Z,11.28
2018-09-29T19:12:04.112Z,11.33
2018-09-29T19:13:57.580Z,11.30
2018-09-29T19:14:57.561Z,11.27
2018-09-29T19:16:53.527Z,11.30
2018-09-29T19:17:53.498Z,11.26
2018-09-29T19:19:49.449Z,11.24
2018-09-29T19:20:47.936Z,11.24
2018-09-29T19:22:42.880Z,11.27
2018-09-29T19:23:42.353Z,11.21
2018-09-29T19:25:36.788Z,11.16
2018-09-29T19:26:37.301Z,11.12
2018-09-29T19:28:31.232Z,11.10
2018-09-29T19:29:31.214Z,11.13
2018-09-29T19:31:26.664Z,11.03
2018-09-29T19:32:26.165Z,10.98
2018-09-29T19:34:20.591Z,11.00
2018-09-29T19:35:20.097Z,10.88
2018-09-29T19:37:14.562Z,10.84
2018-09-29T19:38:15.034Z,10.88
2018-09-29T19:40:08.976Z,10.79
2018-09-29T19:41:08.940Z,10.75
2018-09-29T19:43:04.866Z,10.77
2018-09-29T19:44:05.385Z,10.69
2018-09-29T19:45:59.296Z,10.61
2018-09-29T19:46:59.828Z,10.61
2018-09-29T19:48:53.754Z,10.59
2018-09-29T19:49:53.725Z,10.65
2018-09-29T19:51:48.181Z,10.63
2018-09-29T19:52:48.687Z,10.66
2018-09-29T19:54:44.077Z,10.65
2018-09-29T19:55:44.626Z,10.58
2018-09-29T19:57:37.568Z,10.54
2018-09-29T19:58:37.545Z,10.55
2018-09-29T20:00:32.497Z,10.46
2018-09-29T20:01:31.978Z,10.51
2018-09-29T20:03:25.438Z,10.51
2018-09-29T20:04:25.414Z,10.46
2018-09-29T20:06:19.874Z,10.49
2018-09-29T20:07:20.365Z,10.49
2018-09-29T20:09:13.316Z,10.46
2018-09-29T20:10:13.368Z,10.46
2018-09-29T20:12:09.752Z,10.39
2018-09-29T20:13:08.246Z,10.39
2018-09-29T20:15:03.165Z,10.36
2018-09-29T20:16:02.126Z,10.35
2018-09-29T20:17:59.579Z,10.31
2018-09-29T20:18:58.583Z,10.21
2018-09-29T20:20:53.995Z,10.18
2018-09-29T20:21:53.982Z,10.28
2018-09-29T20:23:48.450Z,10.28
2018-09-29T20:24:48.941Z,10.21
2018-09-29T20:26:41.862Z,10.21
2018-09-29T20:27:41.868Z,10.20
2018-09-29T20:29:36.336Z,10.08
2018-09-29T20:30:36.392Z,10.08
2018-09-29T20:32:30.725Z,9.99
2018-09-29T20:33:30.732Z,10.02
2018-09-29T20:35:28.207Z,10.03
2018-09-29T20:36:26.637Z,10.00
2018-09-29T20:38:21.096Z,9.98
2018-09-29T20:39:20.058Z,9.95
2018-09-29T20:41:15.980Z,9.85
2018-09-29T20:42:15.984Z,9.84
2018-09-29T20:44:10.455Z,9.81
2018-09-29T20:45:10.405Z,9.89
2018-09-29T20:47:05.502Z,9.85
2018-09-29T20:48:04.369Z,9.89
2018-09-29T20:49:58.291Z,9.77
2018-09-29T20:50:58.254Z,9.84
2018-09-29T20:52:54.770Z,9.82
2018-09-29T20:53:52.691Z,9.78
2018-09-29T20:55:48.768Z,9.80
2018-09-29T20:56:48.737Z,9.66
2018-09-29T20:58:43.571Z,9.67
2018-09-29T20:59:43.565Z,9.63
2018-09-29T21:01:36.568Z,9.64
2018-09-29T21:02:36.471Z,9.66
2018-09-29T21:04:29.936Z,9.63
2018-09-29T21:05:29.934Z,9.64
2018-09-29T21:07:23.352Z,9.63
2018-09-29T21:08:23.370Z,9.63
2018-09-29T21:10:17.793Z,9.62
2018-09-29T21:11:17.789Z,9.63
2018-09-29T21:13:12.843Z,9.55
2018-09-29T21:14:12.731Z,9.47
2018-09-29T21:16:06.687Z,9.50
2018-09-29T21:17:07.186Z,9.45
2018-09-29T21:19:01.121Z,9.50
2018-09-29T21:20:01.611Z,9.48
2018-09-29T21:21:57.076Z,9.41
2018-09-29T21:22:58.772Z,9.48
2018-09-29T21:24:50.557Z,9.44
2018-09-29T21:25:50.494Z,9.47
2018-09-29T21:27:44.945Z,9.47
2018-09-29T21:28:45.436Z,9.50
2018-09-29T21:30:38.360Z,9.44
2018-09-29T21:31:38.361Z,9.52
2018-09-29T21:33:32.774Z,9.48
2018-09-29T21:34:33.302Z,9.55
2018-09-29T21:36:28.779Z,9.60
2018-09-29T21:37:28.721Z,9.55
2018-09-29T21:39:22.657Z,9.57
2018-09-29T21:40:22.146Z,9.50
2018-09-29T21:42:17.581Z,9.47
2018-09-29T21:43:16.870Z,9.55
2018-09-29T21:45:10.826Z,9.56
2018-09-29T21:46:10.297Z,9.50
2018-09-29T21:48:06.261Z,9.48
2018-09-29T21:49:06.229Z,9.45
2018-09-29T21:51:03.671Z,9.48
2018-09-29T21:52:02.180Z,9.50
2018-09-29T21:53:57.146Z,9.48
2018-09-29T21:54:56.612Z,9.45
2018-09-29T21:56:51.985Z,9.48
2018-09-29T21:57:51.555Z,9.50
2018-09-29T21:59:45.998Z,9.47
2018-09-29T22:00:45.510Z,9.48
2018-09-29T22:02:40.474Z,9.56
2018-09-29T22:03:40.493Z,9.48
2018-09-29T22:05:34.355Z,9.48
2018-09-29T22:06:34.335Z,9.52
2018-09-29T22:08:29.288Z,9.52
2018-09-29T22:09:28.752Z,9.50
2018-09-29T22:11:23.185Z,9.55
2018-09-29T22:12:23.178Z,9.48
2018-09-29T22:14:16.646Z,9.50
2018-09-29T22:15:16.605Z,9.48
2018-09-29T22:17:11.565Z,9.50
2018-09-29T22:18:11.038Z,9.45
2018-09-29T22:20:06.966Z,9.41
2018-09-29T22:21:05.520Z,9.44
2018-09-29T22:22:59.911Z,9.47
2018-09-29T22:23:59.865Z,9.47
2018-09-29T22:25:55.246Z,9.44
2018-09-29T22:26:54.268Z,9.44
2018-09-29T22:28:48.712Z,9.45
2018-09-29T22:29:48.717Z,9.48
2018-09-29T22:31:43.695Z,9.48
2018-09-29T22:32:43.143Z,9.44
2018-09-29T22:34:38.084Z,9.38
2018-09-29T22:35:37.567Z,9.27
2018-09-29T22:37:34.004Z,9.32
2018-09-29T22:38:32.508Z,9.16
2018-09-29T22:40:25.936Z,9.23
2018-09-29T22:41:25.411Z,9.14
2018-09-29T22:43:19.928Z,9.17
2018-09-29T22:44:19.840Z,9.23
2018-09-29T22:46:14.282Z,9.14
2018-09-29T22:47:14.273Z,9.16
2018-09-29T22:49:08.724Z,9.17
2018-09-29T22:50:08.686Z,9.14
2018-09-29T22:52:03.614Z,9.27
2018-09-29T22:53:03.620Z,9.29
2018-09-29T22:54:57.579Z,9.29
2018-09-29T22:55:58.066Z,9.34
2018-09-29T22:57:53.400Z,9.27
2018-09-29T22:58:51.939Z,9.32
2018-09-29T23:00:46.889Z,9.14
2018-09-29T23:01:46.366Z,9.17
2018-09-29T23:03:41.810Z,9.29
2018-09-29T23:04:40.794Z,9.20
2018-09-29T23:06:35.730Z,9.05
2018-09-29T23:07:35.748Z,9.11
2018-09-29T23:09:29.681Z,9.19
2018-09-29T23:10:29.641Z,9.19
2018-09-29T23:12:24.588Z,9.16
2018-09-29T23:13:24.073Z,9.26
2018-09-29T23:15:18.530Z,9.47
2018-09-29T23:16:18.465Z,9.45
2018-09-29T23:18:12.894Z,9.53
2018-09-29T23:19:13.088Z,9.47
2018-09-29T23:21:08.344Z,9.56
2018-09-29T23:22:07.326Z,9.45
2018-09-29T23:24:01.784Z,9.45
2018-09-29T23:25:01.777Z,9.32
2018-09-29T23:26:56.185Z,9.26
2018-09-29T23:27:56.185Z,9.16
2018-09-29T23:29:50.649Z,9.19
2018-09-29T23:30:50.641Z,9.03
2018-09-29T23:32:45.084Z,9.00
2018-09-29T23:33:45.056Z,8.95
2018-09-29T23:35:39.496Z,8.83
2018-09-29T23:36:39.475Z,8.85
2018-09-29T23:38:34.412Z,8.85
2018-09-29T23:39:33.913Z,8.80
2018-09-29T23:41:28.318Z,8.83
2018-09-29T23:42:28.330Z,8.77
2018-09-29T23:44:22.779Z,8.77
2018-09-29T23:45:22.755Z,8.82
2018-09-29T23:47:17.715Z,8.85
2018-09-29T23:48:17.183Z,8.68
2018-09-29T23:50:10.604Z,8.64
2018-09-29T23:51:12.129Z,8.67
2018-09-29T23:53:04.066Z,8.62
2018-09-29T23:54:04.028Z,8.60
2018-09-29T23:55:58.486Z,8.65
2018-09-29T23:56:58.463Z,8.53
2018-09-29T23:58:53.424Z,8.68
2018-09-29T23:59:52.879Z,8.68
